TJBQ/BQN METAR and TAF weather

Enter ICAO airport designator
Station Type Date Time Source
TJBQ METAR 2020/09/27 00:50 UTC NOAA

TJBQ 270050Z 11004KT 10SM SCT022 26/23 A2996


Station Type Date Time Source
TJBQ Decoded METAR 2020/09/27 00:50 UTC NOAA

Aquadilla, Rafael Hernandez Airport, PR, United States (TJBQ) 18-30N 067-08W 69M
Sep 26, 2020 - 08:50 PM EDT / 2020.09.27 0050 UTC
Wind: from the ESE (110 degrees) at 5 MPH (4 KT):0
Visibility: 10 mile(s):0
Sky conditions: partly cloudy
Temperature: 78 F (26 C)
Dew Point: 73 F (23 C)
Relative Humidity: 83%
Pressure (altimeter): 29.96 in. Hg (1014 hPa)
ob: TJBQ 270050Z 11004KT 10SM SCT022 26/23 A2996
cycle: 1

Station Type Date Time Source
TJBQ TAF 2020/09/26 18:51 UTC NOAA

TAF TJBQ 261739Z 2618/2718 06013KT P6SM VCTS FEW025CB SCT040
FM262200 08010KT P6SM FEW028 SCT070
FM270900 11004KT P6SM VCSH SCT025 SCT040
FM271430 07014KT P6SM SCT035
AMD NOT SKED 2702/2711

Example: see airport list